createdAt,value
2018-12-13T00:01:09.438Z,24.28
2018-12-13T00:03:38.795Z,24.26
2018-12-13T00:06:08.116Z,24.33
2018-12-13T00:08:37.629Z,24.33
2018-12-13T00:11:07.007Z,24.35
2018-12-13T00:13:36.279Z,24.32
2018-12-13T00:16:05.520Z,24.37
2018-12-13T00:18:34.931Z,24.30
2018-12-13T00:21:04.334Z,24.30
2018-12-13T00:23:33.640Z,24.32
2018-12-13T00:26:03.156Z,24.38
2018-12-13T00:28:32.528Z,24.31
2018-12-13T00:31:01.852Z,24.28
2018-12-13T00:33:31.252Z,24.31
2018-12-13T00:36:00.664Z,24.33
2018-12-13T00:38:30.244Z,24.30
2018-12-13T00:40:59.752Z,24.33
2018-12-13T00:43:29.269Z,24.34
2018-12-13T00:45:58.660Z,24.31
2018-12-13T00:48:27.977Z,24.27
2018-12-13T00:50:57.275Z,24.32
2018-12-13T00:53:26.556Z,24.29
2018-12-13T00:55:55.801Z,24.27
2018-12-13T00:58:25.264Z,24.27
2018-12-13T01:00:56.687Z,24.24
2018-12-13T01:03:26.043Z,24.26
2018-12-13T01:05:55.350Z,24.23
2018-12-13T01:08:25.112Z,24.24
2018-12-13T01:10:54.347Z,24.27
2018-12-13T01:13:23.849Z,24.28
2018-12-13T01:15:53.280Z,24.19
2018-12-13T01:18:22.521Z,24.22
2018-12-13T01:20:51.787Z,24.23
2018-12-13T01:23:21.255Z,24.25
2018-12-13T01:25:50.582Z,24.20
2018-12-13T01:28:19.878Z,24.19
2018-12-13T01:30:49.281Z,24.30
2018-12-13T01:33:18.587Z,24.27
2018-12-13T01:35:48.063Z,24.24
2018-12-13T01:38:17.391Z,24.22
2018-12-13T01:40:46.685Z,24.32
2018-12-13T01:43:15.890Z,24.26
2018-12-13T01:45:45.175Z,24.12
2018-12-13T01:48:14.499Z,24.24
2018-12-13T01:50:43.936Z,24.26
2018-12-13T01:53:13.291Z,24.30
2018-12-13T01:55:42.584Z,24.28
2018-12-13T01:58:12.009Z,24.31
2018-12-13T02:00:41.398Z,24.36
2018-12-13T02:03:10.699Z,24.31
2018-12-13T02:05:40.099Z,24.31
2018-12-13T02:08:09.412Z,24.24
2018-12-13T02:10:38.926Z,24.26
2018-12-13T02:13:08.404Z,24.25
2018-12-13T02:15:37.738Z,24.24
2018-12-13T02:18:07.129Z,24.24
2018-12-13T02:20:36.430Z,24.25
2018-12-13T02:23:05.829Z,24.27
2018-12-13T02:25:35.131Z,24.27
2018-12-13T02:28:04.342Z,24.22
2018-12-13T02:30:33.626Z,24.22
2018-12-13T02:33:02.968Z,24.27
2018-12-13T02:35:32.140Z,24.26
2018-12-13T02:38:01.521Z,24.25
2018-12-13T02:40:30.840Z,24.20
2018-12-13T02:43:00.248Z,24.22
2018-12-13T02:45:29.560Z,24.27
2018-12-13T02:47:58.960Z,24.30
2018-12-13T02:50:28.255Z,24.25
2018-12-13T02:52:57.561Z,24.23
2018-12-13T02:55:26.960Z,24.15
2018-12-13T02:57:56.366Z,24.14
2018-12-13T03:00:25.751Z,24.22
2018-12-13T03:02:55.069Z,24.22
2018-12-13T03:05:24.356Z,24.25
2018-12-13T03:07:53.652Z,24.20
2018-12-13T03:10:23.055Z,24.24
2018-12-13T03:12:52.456Z,24.22
2018-12-13T03:15:21.956Z,24.18
2018-12-13T03:17:51.278Z,24.17
2018-12-13T03:20:20.555Z,24.19
2018-12-13T03:22:49.770Z,24.18
2018-12-13T03:25:18.950Z,24.16
2018-12-13T03:27:48.175Z,24.09
2018-12-13T03:30:17.481Z,24.06
2018-12-13T03:32:46.682Z,24.03
2018-12-13T03:35:15.981Z,24.07
2018-12-13T03:37:45.267Z,24.08
2018-12-13T03:40:14.667Z,24.13
2018-12-13T03:42:44.075Z,24.14
2018-12-13T03:45:13.391Z,24.12
2018-12-13T03:47:42.775Z,24.10
2018-12-13T03:50:11.977Z,24.09
2018-12-13T03:52:41.292Z,24.03
2018-12-13T03:55:10.687Z,24.04
2018-12-13T03:57:39.884Z,24.05
2018-12-13T04:00:09.096Z,24.10
2018-12-13T04:02:38.383Z,24.08
2018-12-13T04:05:07.690Z,24.13
2018-12-13T04:07:37.183Z,24.07
2018-12-13T04:10:06.651Z,24.04
2018-12-13T04:12:35.902Z,24.09
2018-12-13T04:15:05.417Z,24.12
2018-12-13T04:17:34.808Z,24.12
2018-12-13T04:20:04.202Z,24.17
2018-12-13T04:22:33.320Z,24.14
2018-12-13T04:25:02.705Z,24.10
2018-12-13T04:27:31.696Z,24.10
2018-12-13T04:30:00.913Z,24.10
2018-12-13T04:32:30.211Z,24.09
2018-12-13T04:34:59.521Z,24.11
2018-12-13T04:37:35.124Z,24.09
2018-12-13T04:40:00.202Z,24.06
2018-12-13T04:42:29.560Z,24.06
2018-12-13T04:44:58.864Z,24.07
2018-12-13T04:47:28.047Z,24.10
2018-12-13T04:49:57.248Z,24.06
2018-12-13T04:52:26.465Z,24.05
2018-12-13T04:54:55.812Z,24.05
2018-12-13T04:57:25.160Z,24.07
2018-12-13T04:59:54.551Z,24.05
2018-12-13T05:02:23.891Z,23.99
2018-12-13T05:04:53.271Z,23.97
2018-12-13T05:07:22.568Z,23.95
2018-12-13T05:09:51.874Z,24.00
2018-12-13T05:12:21.389Z,23.93
2018-12-13T05:14:50.637Z,23.98
2018-12-13T05:17:19.765Z,23.91
2018-12-13T05:19:49.376Z,23.93
2018-12-13T05:22:18.584Z,23.91
2018-12-13T05:24:47.863Z,23.93
2018-12-13T05:27:17.220Z,23.97
2018-12-13T05:29:46.414Z,24.01
2018-12-13T05:32:15.879Z,23.75
2018-12-13T05:34:44.991Z,23.78
2018-12-13T05:37:14.495Z,23.89
2018-12-13T05:39:43.787Z,23.85
2018-12-13T05:42:12.892Z,23.83
2018-12-13T05:44:42.163Z,23.84
2018-12-13T05:47:11.485Z,23.74
2018-12-13T05:49:40.604Z,23.75
2018-12-13T05:52:09.783Z,23.78
2018-12-13T05:54:39.093Z,23.76
2018-12-13T05:57:08.283Z,23.77
2018-12-13T05:59:37.498Z,23.73
2018-12-13T06:02:06.608Z,23.77
2018-12-13T06:04:35.901Z,23.72
2018-12-13T06:07:05.137Z,23.69
2018-12-13T06:09:34.375Z,23.65
2018-12-13T06:12:03.803Z,23.47
2018-12-13T06:14:33.093Z,23.61
2018-12-13T06:17:02.485Z,23.81
2018-12-13T06:19:31.718Z,23.93
2018-12-13T06:22:00.879Z,23.99
2018-12-13T06:24:30.098Z,24.12
2018-12-13T06:26:59.393Z,24.20
2018-12-13T06:29:28.604Z,24.32
2018-12-13T06:31:57.887Z,23.58
2018-12-13T06:34:27.136Z,23.68
2018-12-13T06:36:56.395Z,23.81
2018-12-13T06:39:25.919Z,23.81
2018-12-13T06:41:55.200Z,23.81
2018-12-13T06:44:24.606Z,23.77
2018-12-13T06:46:54.207Z,23.75
2018-12-13T06:49:23.521Z,23.75
2018-12-13T06:51:52.822Z,23.68
2018-12-13T06:54:22.163Z,23.72
2018-12-13T06:56:51.515Z,23.68
2018-12-13T06:59:20.916Z,23.69
2018-12-13T07:01:50.316Z,23.66
2018-12-13T07:04:19.614Z,23.57
2018-12-13T07:06:48.920Z,23.79
2018-12-13T07:09:18.240Z,23.94
2018-12-13T07:11:47.531Z,24.07
2018-12-13T07:14:16.836Z,24.15
2018-12-13T07:16:46.135Z,24.28
2018-12-13T07:19:15.328Z,24.40
2018-12-13T07:21:44.534Z,24.55
2018-12-13T07:24:13.840Z,24.60
2018-12-13T07:26:43.147Z,24.68
2018-12-13T07:29:12.476Z,24.72
2018-12-13T07:31:42.108Z,24.69
2018-12-13T07:34:11.455Z,24.67
2018-12-13T07:36:40.880Z,24.66
2018-12-13T07:39:10.383Z,24.62
2018-12-13T07:41:39.701Z,24.51
2018-12-13T07:44:09.156Z,24.38
2018-12-13T07:46:38.564Z,24.28
2018-12-13T07:49:07.976Z,24.23
2018-12-13T07:51:37.376Z,24.20
2018-12-13T07:54:06.689Z,24.17
2018-12-13T07:56:35.980Z,24.12
2018-12-13T07:59:05.496Z,24.09
2018-12-13T08:01:34.893Z,24.06
2018-12-13T08:04:04.296Z,24.01
2018-12-13T08:06:33.607Z,24.00
2018-12-13T08:09:03.255Z,23.98
2018-12-13T08:11:32.587Z,23.95
2018-12-13T08:14:02.047Z,23.90
2018-12-13T08:16:31.423Z,23.92
2018-12-13T08:19:00.733Z,23.86
2018-12-13T08:21:30.007Z,23.86
2018-12-13T08:23:59.275Z,23.84
2018-12-13T08:26:28.506Z,23.88
2018-12-13T08:28:57.916Z,23.86
2018-12-13T08:31:27.343Z,23.79
2018-12-13T08:33:56.557Z,23.79
2018-12-13T08:36:25.843Z,23.78
2018-12-13T08:38:55.337Z,23.75
2018-12-13T08:41:24.680Z,23.74
2018-12-13T08:43:54.011Z,23.73
2018-12-13T08:46:23.451Z,23.76
2018-12-13T08:48:53.016Z,23.74
2018-12-13T08:51:22.365Z,23.72
2018-12-13T08:53:51.755Z,23.71
2018-12-13T08:56:21.167Z,23.76
2018-12-13T08:58:50.456Z,23.74
2018-12-13T09:01:19.882Z,23.76
2018-12-13T09:03:49.233Z,23.73
2018-12-13T09:06:18.474Z,23.71
2018-12-13T09:08:47.735Z,23.70
2018-12-13T09:11:17.052Z,23.69
2018-12-13T09:13:46.459Z,23.73
2018-12-13T09:16:15.781Z,23.73
2018-12-13T09:18:45.111Z,23.75
2018-12-13T09:21:14.409Z,23.75
2018-12-13T09:23:43.672Z,23.75
2018-12-13T09:26:13.091Z,23.79
2018-12-13T09:28:42.455Z,23.78
2018-12-13T09:31:11.604Z,23.74
2018-12-13T09:33:41.082Z,23.70
2018-12-13T09:36:10.588Z,23.78
2018-12-13T09:38:40.111Z,23.72
2018-12-13T09:41:09.624Z,23.79
2018-12-13T09:43:38.913Z,23.76
2018-12-13T09:46:08.115Z,23.75
2018-12-13T09:48:37.412Z,23.77
2018-12-13T09:51:06.824Z,23.74
2018-12-13T09:53:36.202Z,23.75
2018-12-13T09:56:05.512Z,23.74
2018-12-13T09:58:34.821Z,23.87
2018-12-13T10:01:04.312Z,23.96
2018-12-13T10:03:33.529Z,23.98
2018-12-13T10:06:02.735Z,23.97
2018-12-13T10:08:31.928Z,24.06
2018-12-13T10:11:01.128Z,24.14
2018-12-13T10:13:30.619Z,24.07
2018-12-13T10:15:59.829Z,23.99
2018-12-13T10:18:29.216Z,24.02
2018-12-13T10:20:58.424Z,24.12
2018-12-13T10:23:27.824Z,24.11
2018-12-13T10:25:59.638Z,24.21
2018-12-13T10:28:28.386Z,24.22
2018-12-13T10:30:57.785Z,24.29
2018-12-13T10:33:27.072Z,24.23
2018-12-13T10:35:56.392Z,24.10
2018-12-13T10:38:25.802Z,24.17
2018-12-13T10:40:54.996Z,24.23
2018-12-13T10:43:24.185Z,24.08
2018-12-13T10:45:53.491Z,24.05
2018-12-13T10:48:22.780Z,24.00
2018-12-13T10:50:52.009Z,24.01
2018-12-13T10:53:21.392Z,24.00
2018-12-13T10:55:50.688Z,23.99
2018-12-13T10:58:19.983Z,23.99
2018-12-13T11:01:58.226Z,24.04
2018-12-13T11:04:27.580Z,24.03
2018-12-13T11:06:56.792Z,23.97
2018-12-13T11:09:26.100Z,23.99
2018-12-13T11:11:55.448Z,24.00
2018-12-13T11:14:24.836Z,24.00
2018-12-13T11:16:54.128Z,24.06
2018-12-13T11:19:23.404Z,24.06
2018-12-13T11:21:52.793Z,24.05
2018-12-13T11:24:22.078Z,24.06
2018-12-13T11:26:51.449Z,24.05
2018-12-13T11:29:34.480Z,24.05
2018-12-13T11:32:03.968Z,24.04
2018-12-13T11:34:33.385Z,24.07
2018-12-13T11:37:02.677Z,24.07
2018-12-13T11:39:31.976Z,24.06
2018-12-13T11:42:01.154Z,24.25
2018-12-13T11:44:30.463Z,24.26
2018-12-13T11:46:59.963Z,24.25
2018-12-13T11:49:29.347Z,24.30
2018-12-13T11:51:58.642Z,24.52
2018-12-13T11:54:39.994Z,24.42
2018-12-13T11:57:09.256Z,24.35
2018-12-13T11:59:38.771Z,24.24
2018-12-13T12:02:08.191Z,24.23
2018-12-13T12:04:37.378Z,24.34
2018-12-13T12:07:06.683Z,24.27
2018-12-13T12:09:36.164Z,24.30
2018-12-13T12:12:05.589Z,24.25
2018-12-13T12:14:34.887Z,24.26
2018-12-13T12:17:04.310Z,24.28
2018-12-13T12:19:33.572Z,24.32
2018-12-13T12:22:02.892Z,24.34
2018-12-13T12:24:32.270Z,24.30
2018-12-13T12:27:01.590Z,24.31
2018-12-13T12:29:31.023Z,24.29
2018-12-13T12:32:00.303Z,24.32
2018-12-13T12:34:29.585Z,24.30
2018-12-13T12:36:58.892Z,24.33
2018-12-13T12:39:28.307Z,24.30
2018-12-13T12:41:57.494Z,24.32
2018-12-13T12:44:30.736Z,24.24
2018-12-13T12:47:00.115Z,24.21
2018-12-13T12:49:29.408Z,24.25
2018-12-13T12:51:58.716Z,24.44
2018-12-13T12:54:27.895Z,24.35
2018-12-13T12:56:57.413Z,24.38
2018-12-13T12:59:26.783Z,24.34
2018-12-13T13:01:56.117Z,24.33
2018-12-13T13:04:25.510Z,24.33
2018-12-13T13:06:54.913Z,24.50
2018-12-13T13:09:25.221Z,24.61
2018-12-13T13:11:54.755Z,24.57
2018-12-13T13:14:24.031Z,24.53
2018-12-13T13:16:53.239Z,24.56
2018-12-13T13:19:22.647Z,24.52
2018-12-13T13:21:51.853Z,24.55
2018-12-13T13:24:21.258Z,24.55
2018-12-13T13:26:50.763Z,24.53
2018-12-13T13:29:20.152Z,24.62
2018-12-13T13:31:49.327Z,24.63
2018-12-13T13:34:18.651Z,24.55
2018-12-13T13:36:47.592Z,24.54
2018-12-13T13:39:16.955Z,24.55
2018-12-13T13:41:46.148Z,24.61
2018-12-13T13:44:15.816Z,24.58
2018-12-13T13:46:45.216Z,24.58
2018-12-13T13:49:14.555Z,24.58
2018-12-13T13:51:43.864Z,24.63
2018-12-13T13:54:13.215Z,24.51
2018-12-13T13:56:42.607Z,24.46
2018-12-13T13:59:11.901Z,24.51
2018-12-13T14:01:41.181Z,24.51
2018-12-13T14:04:10.492Z,24.52
2018-12-13T14:06:39.825Z,24.52
2018-12-13T14:09:09.099Z,24.61
2018-12-13T14:11:38.488Z,24.49
2018-12-13T14:14:07.884Z,24.54
2018-12-13T14:16:37.235Z,24.59
2018-12-13T14:19:06.492Z,24.62
2018-12-13T14:21:35.836Z,24.50
2018-12-13T14:24:05.101Z,24.54
2018-12-13T14:26:34.295Z,24.65
2018-12-13T14:29:03.700Z,24.60
2018-12-13T14:31:34.608Z,24.50
2018-12-13T14:34:03.930Z,24.49
2018-12-13T14:36:33.246Z,24.50
2018-12-13T14:39:02.701Z,24.51
2018-12-13T14:41:31.951Z,24.55
2018-12-13T14:44:01.247Z,24.59
2018-12-13T14:46:30.559Z,24.58
2018-12-13T14:48:59.847Z,24.57
2018-12-13T14:51:29.263Z,24.53
2018-12-13T14:53:58.555Z,24.51
2018-12-13T14:56:27.844Z,24.45
2018-12-13T14:58:57.060Z,24.45
2018-12-13T15:01:26.877Z,24.37
2018-12-13T15:03:56.468Z,24.34
2018-12-13T15:06:25.859Z,24.33
2018-12-13T15:08:55.197Z,24.34
2018-12-13T15:11:24.575Z,24.33
2018-12-13T15:13:53.905Z,24.35
2018-12-13T15:16:23.187Z,24.32
2018-12-13T15:18:52.391Z,24.31
2018-12-13T15:21:21.693Z,24.35
2018-12-13T15:23:50.913Z,24.41
2018-12-13T15:26:20.379Z,24.39
2018-12-13T15:28:49.703Z,24.37
2018-12-13T15:31:19.096Z,24.39
2018-12-13T15:33:48.505Z,24.39
2018-12-13T15:36:17.803Z,24.38
2018-12-13T15:38:47.199Z,24.35
2018-12-13T15:41:16.406Z,24.33
2018-12-13T15:43:45.647Z,24.33
2018-12-13T15:46:14.800Z,24.31
2018-12-13T15:48:44.200Z,24.34
2018-12-13T15:51:13.591Z,24.28
2018-12-13T15:53:42.905Z,24.28
2018-12-13T15:56:12.295Z,24.31
2018-12-13T15:58:41.518Z,24.33
2018-12-13T16:01:10.911Z,24.27
2018-12-13T16:03:40.231Z,24.27
2018-12-13T16:06:09.608Z,24.26
2018-12-13T16:08:38.892Z,24.25
2018-12-13T16:11:08.102Z,24.29
2018-12-13T16:13:37.335Z,24.23
2018-12-13T16:16:07.426Z,24.23
2018-12-13T16:18:36.700Z,24.28
2018-12-13T16:21:06.050Z,24.24
2018-12-13T16:23:35.444Z,24.21
2018-12-13T16:26:04.731Z,24.20
2018-12-13T16:28:34.048Z,24.24
2018-12-13T16:31:03.240Z,24.18
2018-12-13T16:33:32.457Z,24.27
2018-12-13T16:36:01.880Z,24.26
2018-12-13T16:38:31.145Z,24.23
2018-12-13T16:41:00.357Z,24.21
2018-12-13T16:43:29.651Z,24.10
2018-12-13T16:45:58.855Z,24.06
2018-12-13T16:48:28.202Z,23.99
2018-12-13T16:50:57.554Z,23.93
2018-12-13T16:53:26.971Z,23.86
2018-12-13T16:55:56.360Z,23.81
2018-12-13T16:58:25.471Z,23.78
2018-12-13T17:00:54.863Z,23.74
2018-12-13T17:03:36.652Z,23.62
2018-12-13T17:06:06.800Z,23.67
2018-12-13T17:08:36.080Z,23.73
2018-12-13T17:11:05.592Z,23.62
2018-12-13T17:13:34.822Z,23.61
2018-12-13T17:16:03.989Z,23.49
2018-12-13T17:18:33.314Z,23.53
2018-12-13T17:21:02.854Z,23.60
2018-12-13T17:23:32.395Z,23.56
2018-12-13T17:26:03.242Z,23.48
2018-12-13T17:28:33.983Z,23.45
2018-12-13T17:31:03.493Z,23.48
2018-12-13T17:33:32.889Z,23.41
2018-12-13T17:36:02.273Z,23.41
2018-12-13T17:38:31.589Z,23.38
2018-12-13T17:41:00.978Z,23.37
2018-12-13T17:43:30.179Z,23.29
2018-12-13T17:45:59.905Z,23.31
2018-12-13T17:48:29.102Z,23.34
2018-12-13T17:50:58.306Z,23.28
2018-12-13T17:53:28.007Z,23.29
2018-12-13T17:55:57.708Z,23.25
2018-12-13T17:58:27.020Z,23.27
2018-12-13T18:00:56.319Z,23.26
2018-12-13T18:03:25.820Z,23.23
2018-12-13T18:05:55.014Z,23.16
2018-12-13T18:08:25.121Z,23.17
2018-12-13T18:10:55.140Z,23.22
2018-12-13T18:13:24.567Z,23.22
2018-12-13T18:15:54.065Z,23.27
2018-12-13T18:18:23.283Z,23.29
2018-12-13T18:20:52.581Z,23.33
2018-12-13T18:23:22.863Z,23.28
2018-12-13T18:25:52.094Z,23.33
2018-12-13T18:28:21.298Z,23.36
2018-12-13T18:30:50.906Z,23.34
2018-12-13T18:33:20.476Z,23.34
2018-12-13T18:35:49.941Z,23.35
2018-12-13T18:38:20.446Z,23.36
2018-12-13T18:40:50.274Z,23.36
2018-12-13T18:43:20.341Z,23.37
2018-12-13T18:45:49.695Z,23.40
2018-12-13T18:48:19.239Z,23.37
2018-12-13T18:50:49.859Z,23.40
2018-12-13T18:53:19.376Z,23.39
2018-12-13T18:55:49.574Z,23.43
2018-12-13T18:58:19.067Z,23.46
2018-12-13T19:00:48.447Z,23.54
2018-12-13T19:03:18.085Z,23.37
2018-12-13T19:05:47.790Z,23.34
2018-12-13T19:08:17.249Z,23.40
2018-12-13T19:10:46.961Z,23.35
2018-12-13T19:13:16.260Z,23.35
2018-12-13T19:15:45.921Z,23.41
2018-12-13T19:18:15.318Z,23.46
2018-12-13T19:20:45.621Z,23.53
2018-12-13T19:23:15.661Z,23.41
2018-12-13T19:25:46.405Z,23.40
2018-12-13T19:28:15.749Z,23.45
2018-12-13T19:30:45.184Z,23.46
2018-12-13T19:33:14.464Z,23.43
2018-12-13T19:35:44.711Z,23.47
2018-12-13T19:38:14.155Z,23.44
2018-12-13T19:40:48.360Z,23.44
2018-12-13T19:43:15.346Z,23.43
2018-12-13T19:45:45.293Z,23.45
2018-12-13T19:48:15.053Z,23.45
2018-12-13T19:50:45.247Z,23.41
2018-12-13T19:53:14.801Z,23.43
2018-12-13T19:55:44.352Z,23.42
2018-12-13T19:58:13.548Z,23.46
2018-12-13T20:00:43.300Z,23.40
2018-12-13T20:03:13.060Z,23.45
2018-12-13T20:05:42.504Z,23.41
2018-12-13T20:08:11.991Z,23.47
2018-12-13T20:10:41.748Z,23.45
2018-12-13T20:13:12.245Z,23.59
2018-12-13T20:15:41.724Z,23.87
2018-12-13T20:18:12.655Z,24.12
2018-12-13T20:20:42.188Z,24.27
2018-12-13T20:23:11.404Z,24.36
2018-12-13T20:25:41.068Z,24.48
2018-12-13T20:28:11.418Z,24.57
2018-12-13T20:30:41.096Z,24.67
2018-12-13T20:33:10.248Z,24.71
2018-12-13T20:35:39.591Z,24.67
2018-12-13T20:38:08.917Z,24.63
2018-12-13T20:40:38.332Z,24.54
2018-12-13T20:43:07.623Z,24.39
2018-12-13T20:45:36.932Z,24.30
2018-12-13T20:48:06.319Z,24.17
2018-12-13T20:50:35.539Z,24.09
2018-12-13T20:53:04.860Z,24.05
2018-12-13T20:55:34.588Z,23.97
2018-12-13T20:58:03.940Z,23.92
2018-12-13T21:00:33.248Z,23.83
2018-12-13T21:03:03.147Z,23.80
2018-12-13T21:05:32.567Z,23.71
2018-12-13T21:08:06.647Z,23.68
2018-12-13T21:10:36.184Z,23.70
2018-12-13T21:13:05.507Z,23.69
2018-12-13T21:15:34.804Z,23.66
2018-12-13T21:18:04.275Z,23.64
2018-12-13T21:20:33.693Z,23.62
2018-12-13T21:23:02.980Z,23.61
2018-12-13T21:25:32.310Z,23.61
2018-12-13T21:28:01.700Z,23.63
2018-12-13T21:30:31.028Z,23.60
2018-12-13T21:33:00.623Z,23.69
2018-12-13T21:35:30.220Z,23.64
2018-12-13T21:37:59.645Z,23.64
2018-12-13T21:40:28.925Z,23.64
2018-12-13T21:42:58.239Z,23.62
2018-12-13T21:45:27.636Z,23.59
2018-12-13T21:47:57.137Z,23.65
2018-12-13T21:50:26.635Z,23.64
2018-12-13T21:52:56.035Z,23.60
2018-12-13T21:55:25.247Z,23.53
2018-12-13T21:57:54.752Z,23.53
2018-12-13T22:00:24.147Z,23.56
2018-12-13T22:02:53.484Z,23.47
2018-12-13T22:05:22.871Z,23.48
2018-12-13T22:07:52.174Z,23.52
2018-12-13T22:10:21.571Z,23.54
2018-12-13T22:12:50.883Z,23.45
2018-12-13T22:15:20.204Z,23.45
2018-12-13T22:17:49.667Z,23.47
2018-12-13T22:20:18.989Z,23.42
2018-12-13T22:22:48.288Z,23.47
2018-12-13T22:25:17.609Z,23.46
2018-12-13T22:27:47.076Z,23.44
2018-12-13T22:30:16.497Z,23.40
2018-12-13T22:32:45.990Z,23.45
2018-12-13T22:35:15.399Z,23.48
2018-12-13T22:37:44.803Z,23.42
2018-12-13T22:40:14.125Z,23.46
2018-12-13T22:42:43.344Z,23.44
2018-12-13T22:45:12.807Z,23.41
2018-12-13T22:47:42.228Z,23.36
2018-12-13T22:50:11.541Z,23.32
2018-12-13T22:52:40.927Z,23.37
2018-12-13T22:55:10.256Z,23.26
2018-12-13T22:57:39.724Z,23.28
2018-12-13T23:00:10.636Z,23.34
2018-12-13T23:02:39.980Z,23.32
2018-12-13T23:05:09.296Z,23.31
2018-12-13T23:07:38.562Z,23.29
2018-12-13T23:10:07.891Z,23.27
2018-12-13T23:12:37.379Z,23.30
2018-12-13T23:15:06.780Z,23.29
2018-12-13T23:17:36.224Z,23.27
2018-12-13T23:20:05.534Z,23.23
2018-12-13T23:22:34.821Z,23.25
2018-12-13T23:25:04.284Z,23.26
2018-12-13T23:27:33.719Z,23.22
2018-12-13T23:30:03.140Z,23.26
2018-12-13T23:32:32.441Z,23.21
2018-12-13T23:35:01.732Z,23.26
2018-12-13T23:37:31.201Z,23.24
2018-12-13T23:40:00.711Z,23.19
2018-12-13T23:42:30.114Z,23.21
2018-12-13T23:44:59.559Z,23.20
2018-12-13T23:47:28.858Z,23.18
2018-12-13T23:49:58.321Z,23.13
2018-12-13T23:52:27.823Z,23.18
2018-12-13T23:54:57.297Z,23.20
2018-12-13T23:57:26.643Z,23.18
2018-12-13T23:59:56.060Z,23.19
